sensor_id;sensor_type;location;lat;lon;timestamp;temperature;humidity
71291;DHT22;59073;51.994;4.448;2023-04-06T00:00:50;7.47;64.79
71291;DHT22;59073;51.994;4.448;2023-04-06T00:03:15;7.59;64.71
71291;DHT22;59073;51.994;4.448;2023-04-06T00:05:41;7.55;65.67
71291;DHT22;59073;51.994;4.448;2023-04-06T00:08:07;7.57;65.22
71291;DHT22;59073;51.994;4.448;2023-04-06T00:10:33;7.64;65.10
71291;DHT22;59073;51.994;4.448;2023-04-06T00:12:59;7.69;64.49
71291;DHT22;59073;51.994;4.448;2023-04-06T00:15:25;7.75;64.53
71291;DHT22;59073;51.994;4.448;2023-04-06T00:17:51;7.65;64.81
71291;DHT22;59073;51.994;4.448;2023-04-06T00:20:16;7.54;65.18
71291;DHT22;59073;51.994;4.448;2023-04-06T00:22:43;7.44;66.15
71291;DHT22;59073;51.994;4.448;2023-04-06T00:25:09;7.41;64.80
71291;DHT22;59073;51.994;4.448;2023-04-06T00:27:35;7.38;64.90
71291;DHT22;59073;51.994;4.448;2023-04-06T00:30:02;7.34;64.85
71291;DHT22;59073;51.994;4.448;2023-04-06T00:32:28;7.43;64.22
71291;DHT22;59073;51.994;4.448;2023-04-06T00:34:53;7.50;63.03
71291;DHT22;59073;51.994;4.448;2023-04-06T00:37:19;7.47;62.54
71291;DHT22;59073;51.994;4.448;2023-04-06T00:39:44;7.48;63.04
71291;DHT22;59073;51.994;4.448;2023-04-06T00:42:14;7.47;62.78
71291;DHT22;59073;51.994;4.448;2023-04-06T00:44:42;7.44;62.54
71291;DHT22;59073;51.994;4.448;2023-04-06T00:47:08;7.52;61.99
71291;DHT22;59073;51.994;4.448;2023-04-06T00:49:34;7.57;61.83
71291;DHT22;59073;51.994;4.448;2023-04-06T00:52:00;7.47;61.96
71291;DHT22;59073;51.994;4.448;2023-04-06T00:54:26;7.50;61.29
71291;DHT22;59073;51.994;4.448;2023-04-06T00:56:51;7.62;60.98
71291;DHT22;59073;51.994;4.448;2023-04-06T00:59:17;7.69;61.49
71291;DHT22;59073;51.994;4.448;2023-04-06T01:01:43;7.59;61.45
71291;DHT22;59073;51.994;4.448;2023-04-06T01:04:08;7.59;62.00
71291;DHT22;59073;51.994;4.448;2023-04-06T01:06:34;7.61;60.66
71291;DHT22;59073;51.994;4.448;2023-04-06T01:08:59;7.61;60.66
71291;DHT22;59073;51.994;4.448;2023-04-06T01:11:24;7.57;61.21
71291;DHT22;59073;51.994;4.448;2023-04-06T01:13:51;7.55;60.49
71291;DHT22;59073;51.994;4.448;2023-04-06T01:16:17;7.54;60.86
71291;DHT22;59073;51.994;4.448;2023-04-06T01:18:42;7.61;60.12
71291;DHT22;59073;51.994;4.448;2023-04-06T01:21:09;7.64;60.17
71291;DHT22;59073;51.994;4.448;2023-04-06T01:23:43;7.55;60.85
71291;DHT22;59073;51.994;4.448;2023-04-06T01:26:09;7.59;60.43
71291;DHT22;59073;51.994;4.448;2023-04-06T01:28:35;7.65;60.01
71291;DHT22;59073;51.994;4.448;2023-04-06T01:31:02;7.62;60.80
71291;DHT22;59073;51.994;4.448;2023-04-06T01:33:28;7.51;60.36
71291;DHT22;59073;51.994;4.448;2023-04-06T01:35:53;7.67;59.72
71291;DHT22;59073;51.994;4.448;2023-04-06T01:38:19;7.59;60.54
71291;DHT22;59073;51.994;4.448;2023-04-06T01:40:44;7.67;61.34
71291;DHT22;59073;51.994;4.448;2023-04-06T01:43:10;7.58;59.41
71291;DHT22;59073;51.994;4.448;2023-04-06T01:45:35;7.61;60.41
71291;DHT22;59073;51.994;4.448;2023-04-06T01:48:01;7.68;59.54
71291;DHT22;59073;51.994;4.448;2023-04-06T01:50:26;7.74;60.26
71291;DHT22;59073;51.994;4.448;2023-04-06T01:52:51;7.74;59.43
71291;DHT22;59073;51.994;4.448;2023-04-06T01:55:17;7.67;59.60
71291;DHT22;59073;51.994;4.448;2023-04-06T01:57:42;7.75;59.52
71291;DHT22;59073;51.994;4.448;2023-04-06T02:00:08;7.79;60.16
71291;DHT22;59073;51.994;4.448;2023-04-06T02:02:34;7.83;60.35
71291;DHT22;59073;51.994;4.448;2023-04-06T02:04:59;7.76;60.32
71291;DHT22;59073;51.994;4.448;2023-04-06T02:07:24;7.76;59.73
71291;DHT22;59073;51.994;4.448;2023-04-06T02:09:54;7.75;59.86
71291;DHT22;59073;51.994;4.448;2023-04-06T02:12:19;7.86;59.79
71291;DHT22;59073;51.994;4.448;2023-04-06T02:14:45;7.83;60.07
71291;DHT22;59073;51.994;4.448;2023-04-06T02:17:10;7.88;60.16
71291;DHT22;59073;51.994;4.448;2023-04-06T02:19:36;7.81;59.87
71291;DHT22;59073;51.994;4.448;2023-04-06T02:22:01;7.75;60.96
71291;DHT22;59073;51.994;4.448;2023-04-06T02:24:26;7.82;60.54
71291;DHT22;59073;51.994;4.448;2023-04-06T02:26:52;7.82;60.66
71291;DHT22;59073;51.994;4.448;2023-04-06T02:29:17;7.78;60.52
71291;DHT22;59073;51.994;4.448;2023-04-06T02:31:43;7.72;60.56
71291;DHT22;59073;51.994;4.448;2023-04-06T02:34:08;7.78;60.74
71291;DHT22;59073;51.994;4.448;2023-04-06T02:36:37;7.86;60.54
71291;DHT22;59073;51.994;4.448;2023-04-06T02:39:02;7.86;60.45
71291;DHT22;59073;51.994;4.448;2023-04-06T02:41:28;7.92;60.81
71291;DHT22;59073;51.994;4.448;2023-04-06T02:43:54;7.88;60.39
71291;DHT22;59073;51.994;4.448;2023-04-06T02:46:19;7.86;60.87
71291;DHT22;59073;51.994;4.448;2023-04-06T02:48:45;7.88;61.76
71291;DHT22;59073;51.994;4.448;2023-04-06T02:51:10;7.86;61.61
71291;DHT22;59073;51.994;4.448;2023-04-06T02:53:36;7.88;61.45
71291;DHT22;59073;51.994;4.448;2023-04-06T02:56:01;7.88;61.39
71291;DHT22;59073;51.994;4.448;2023-04-06T02:58:27;7.86;61.49
71291;DHT22;59073;51.994;4.448;2023-04-06T03:00:52;7.98;61.12
71291;DHT22;59073;51.994;4.448;2023-04-06T03:03:17;8.03;60.93
71291;DHT22;59073;51.994;4.448;2023-04-06T03:05:43;8.00;61.04
71291;DHT22;59073;51.994;4.448;2023-04-06T03:08:08;8.05;61.11
71291;DHT22;59073;51.994;4.448;2023-04-06T03:10:34;8.03;60.95
71291;DHT22;59073;51.994;4.448;2023-04-06T03:12:59;8.12;60.89
71291;DHT22;59073;51.994;4.448;2023-04-06T03:15:24;8.12;60.44
71291;DHT22;59073;51.994;4.448;2023-04-06T03:17:50;8.20;60.38
71291;DHT22;59073;51.994;4.448;2023-04-06T03:20:15;8.25;60.21
71291;DHT22;59073;51.994;4.448;2023-04-06T03:22:41;8.20;60.50
71291;DHT22;59073;51.994;4.448;2023-04-06T03:25:06;8.32;60.32
71291;DHT22;59073;51.994;4.448;2023-04-06T03:27:32;8.27;60.13
71291;DHT22;59073;51.994;4.448;2023-04-06T03:29:57;8.26;60.11
71291;DHT22;59073;51.994;4.448;2023-04-06T03:32:23;8.19;60.02
71291;DHT22;59073;51.994;4.448;2023-04-06T03:34:48;8.25;60.12
71291;DHT22;59073;51.994;4.448;2023-04-06T03:37:14;8.26;60.20
71291;DHT22;59073;51.994;4.448;2023-04-06T03:39:39;8.20;60.15
71291;DHT22;59073;51.994;4.448;2023-04-06T03:42:05;8.26;60.73
71291;DHT22;59073;51.994;4.448;2023-04-06T03:44:31;8.13;61.27
71291;DHT22;59073;51.994;4.448;2023-04-06T03:46:57;8.12;61.24
71291;DHT22;59073;51.994;4.448;2023-04-06T03:49:22;8.12;60.47
71291;DHT22;59073;51.994;4.448;2023-04-06T03:51:47;8.19;60.82
71291;DHT22;59073;51.994;4.448;2023-04-06T03:54:13;8.20;60.98
71291;DHT22;59073;51.994;4.448;2023-04-06T03:56:38;8.19;61.21
71291;DHT22;59073;51.994;4.448;2023-04-06T03:59:04;8.30;61.85
71291;DHT22;59073;51.994;4.448;2023-04-06T04:01:29;8.34;61.75
71291;DHT22;59073;51.994;4.448;2023-04-06T04:03:55;8.30;61.97
71291;DHT22;59073;51.994;4.448;2023-04-06T04:06:20;8.33;61.96
71291;DHT22;59073;51.994;4.448;2023-04-06T04:08:46;8.30;62.28
71291;DHT22;59073;51.994;4.448;2023-04-06T04:11:11;8.23;61.94
71291;DHT22;59073;51.994;4.448;2023-04-06T04:13:37;8.27;62.89
71291;DHT22;59073;51.994;4.448;2023-04-06T04:16:02;8.26;62.96
71291;DHT22;59073;51.994;4.448;2023-04-06T04:18:28;8.26;63.35
71291;DHT22;59073;51.994;4.448;2023-04-06T04:20:53;8.32;63.61
71291;DHT22;59073;51.994;4.448;2023-04-06T04:23:19;8.27;63.46
71291;DHT22;59073;51.994;4.448;2023-04-06T04:25:44;8.33;63.91
71291;DHT22;59073;51.994;4.448;2023-04-06T04:28:10;8.29;64.47
71291;DHT22;59073;51.994;4.448;2023-04-06T04:30:35;8.25;64.58
71291;DHT22;59073;51.994;4.448;2023-04-06T04:33:00;8.22;64.54
71291;DHT22;59073;51.994;4.448;2023-04-06T04:35:26;8.25;64.88
71291;DHT22;59073;51.994;4.448;2023-04-06T04:37:52;8.27;65.20
71291;DHT22;59073;51.994;4.448;2023-04-06T04:40:17;8.22;65.46
71291;DHT22;59073;51.994;4.448;2023-04-06T04:42:43;8.30;65.61
71291;DHT22;59073;51.994;4.448;2023-04-06T04:45:09;8.30;65.41
71291;DHT22;59073;51.994;4.448;2023-04-06T04:47:34;8.29;65.51
71291;DHT22;59073;51.994;4.448;2023-04-06T04:50:00;8.32;66.10
71291;DHT22;59073;51.994;4.448;2023-04-06T04:52:25;8.37;65.86
71291;DHT22;59073;51.994;4.448;2023-04-06T04:54:50;8.33;65.97
71291;DHT22;59073;51.994;4.448;2023-04-06T04:57:16;8.33;66.08
71291;DHT22;59073;51.994;4.448;2023-04-06T04:59:42;8.39;66.09
71291;DHT22;59073;51.994;4.448;2023-04-06T05:02:08;8.39;66.20
71291;DHT22;59073;51.994;4.448;2023-04-06T05:04:33;8.43;66.22
71291;DHT22;59073;51.994;4.448;2023-04-06T05:07:06;8.47;66.65
71291;DHT22;59073;51.994;4.448;2023-04-06T05:09:32;8.43;66.91
71291;DHT22;59073;51.994;4.448;2023-04-06T05:11:59;8.47;67.21
71291;DHT22;59073;51.994;4.448;2023-04-06T05:14:26;8.41;67.22
71291;DHT22;59073;51.994;4.448;2023-04-06T05:16:51;8.46;67.17
71291;DHT22;59073;51.994;4.448;2023-04-06T05:19:17;8.46;67.26
71291;DHT22;59073;51.994;4.448;2023-04-06T05:21:43;8.41;67.49
71291;DHT22;59073;51.994;4.448;2023-04-06T05:24:08;8.48;67.54
71291;DHT22;59073;51.994;4.448;2023-04-06T05:26:34;8.54;67.62
71291;DHT22;59073;51.994;4.448;2023-04-06T05:28:59;8.48;68.17
71291;DHT22;59073;51.994;4.448;2023-04-06T05:31:25;8.51;68.15
71291;DHT22;59073;51.994;4.448;2023-04-06T05:33:50;8.51;68.08
71291;DHT22;59073;51.994;4.448;2023-04-06T05:36:16;8.54;68.38
71291;DHT22;59073;51.994;4.448;2023-04-06T05:38:41;8.64;68.79
71291;DHT22;59073;51.994;4.448;2023-04-06T05:41:07;8.71;68.65
71291;DHT22;59073;51.994;4.448;2023-04-06T05:43:32;8.77;68.64
71291;DHT22;59073;51.994;4.448;2023-04-06T05:45:58;8.67;68.54
71291;DHT22;59073;51.994;4.448;2023-04-06T05:48:23;8.72;68.62
71291;DHT22;59073;51.994;4.448;2023-04-06T05:50:49;8.74;68.44
71291;DHT22;59073;51.994;4.448;2023-04-06T05:53:16;8.68;68.65
71291;DHT22;59073;51.994;4.448;2023-04-06T05:55:41;8.61;68.77
71291;DHT22;59073;51.994;4.448;2023-04-06T05:58:06;8.63;68.61
71291;DHT22;59073;51.994;4.448;2023-04-06T06:00:32;8.74;68.93
71291;DHT22;59073;51.994;4.448;2023-04-06T06:02:57;8.67;68.90
71291;DHT22;59073;51.994;4.448;2023-04-06T06:05:23;8.74;69.35
71291;DHT22;59073;51.994;4.448;2023-04-06T06:07:48;8.74;69.53
71291;DHT22;59073;51.994;4.448;2023-04-06T06:10:14;8.81;69.34
71291;DHT22;59073;51.994;4.448;2023-04-06T06:12:39;8.81;68.82
71291;DHT22;59073;51.994;4.448;2023-04-06T06:15:05;8.84;69.21
71291;DHT22;59073;51.994;4.448;2023-04-06T06:17:31;8.81;69.52
71291;DHT22;59073;51.994;4.448;2023-04-06T06:19:57;8.89;69.90
71291;DHT22;59073;51.994;4.448;2023-04-06T06:22:22;8.92;69.92
71291;DHT22;59073;51.994;4.448;2023-04-06T06:24:47;8.92;69.71
71291;DHT22;59073;51.994;4.448;2023-04-06T06:27:15;8.93;69.65
71291;DHT22;59073;51.994;4.448;2023-04-06T06:29:41;9.05;69.53
71291;DHT22;59073;51.994;4.448;2023-04-06T06:32:06;9.07;69.23
71291;DHT22;59073;51.994;4.448;2023-04-06T06:34:34;9.11;69.23
71291;DHT22;59073;51.994;4.448;2023-04-06T06:37:00;9.09;69.96
71291;DHT22;59073;51.994;4.448;2023-04-06T06:39:26;9.19;69.45
71291;DHT22;59073;51.994;4.448;2023-04-06T06:41:51;9.32;69.61
71291;DHT22;59073;51.994;4.448;2023-04-06T06:44:17;9.44;69.40
71291;DHT22;59073;51.994;4.448;2023-04-06T06:46:42;9.56;69.26
71291;DHT22;59073;51.994;4.448;2023-04-06T06:49:09;9.67;69.32
71291;DHT22;59073;51.994;4.448;2023-04-06T06:51:36;9.71;69.16
71291;DHT22;59073;51.994;4.448;2023-04-06T06:54:01;9.74;69.50
71291;DHT22;59073;51.994;4.448;2023-04-06T06:56:27;9.76;69.53
71291;DHT22;59073;51.994;4.448;2023-04-06T06:58:53;9.80;69.67
71291;DHT22;59073;51.994;4.448;2023-04-06T07:01:18;9.74;69.62
71291;DHT22;59073;51.994;4.448;2023-04-06T07:03:43;9.86;70.22
71291;DHT22;59073;51.994;4.448;2023-04-06T07:06:09;10.01;70.19
71291;DHT22;59073;51.994;4.448;2023-04-06T07:08:34;10.15;70.06
71291;DHT22;59073;51.994;4.448;2023-04-06T07:11:00;10.14;70.26
71291;DHT22;59073;51.994;4.448;2023-04-06T07:13:25;10.08;70.34
71291;DHT22;59073;51.994;4.448;2023-04-06T07:15:52;10.14;71.07
71291;DHT22;59073;51.994;4.448;2023-04-06T07:18:18;10.17;71.54
71291;DHT22;59073;51.994;4.448;2023-04-06T07:20:44;10.11;72.63
71291;DHT22;59073;51.994;4.448;2023-04-06T07:23:10;10.15;72.79
71291;DHT22;59073;51.994;4.448;2023-04-06T07:25:36;10.24;73.00
71291;DHT22;59073;51.994;4.448;2023-04-06T07:28:02;10.17;72.52
71291;DHT22;59073;51.994;4.448;2023-04-06T07:30:28;10.22;72.83
71291;DHT22;59073;51.994;4.448;2023-04-06T07:32:54;10.17;72.78
71291;DHT22;59073;51.994;4.448;2023-04-06T07:35:23;10.29;73.15
71291;DHT22;59073;51.994;4.448;2023-04-06T07:37:49;10.34;73.22
71291;DHT22;59073;51.994;4.448;2023-04-06T07:40:15;10.27;73.22
71291;DHT22;59073;51.994;4.448;2023-04-06T07:42:40;10.31;73.53
71291;DHT22;59073;51.994;4.448;2023-04-06T07:45:06;10.35;73.22
71291;DHT22;59073;51.994;4.448;2023-04-06T07:47:32;10.25;73.26
71291;DHT22;59073;51.994;4.448;2023-04-06T07:49:58;10.22;73.52
71291;DHT22;59073;51.994;4.448;2023-04-06T07:52:23;10.27;73.83
71291;DHT22;59073;51.994;4.448;2023-04-06T07:54:49;10.17;73.79
71291;DHT22;59073;51.994;4.448;2023-04-06T07:57:15;10.20;74.79
71291;DHT22;59073;51.994;4.448;2023-04-06T07:59:40;10.18;74.49
71291;DHT22;59073;51.994;4.448;2023-04-06T08:02:06;10.14;74.99
71291;DHT22;59073;51.994;4.448;2023-04-06T08:04:32;10.18;75.61
71291;DHT22;59073;51.994;4.448;2023-04-06T08:06:57;10.18;76.02
71291;DHT22;59073;51.994;4.448;2023-04-06T08:09:23;10.27;76.34
71291;DHT22;59073;51.994;4.448;2023-04-06T08:11:48;10.17;76.08
71291;DHT22;59073;51.994;4.448;2023-04-06T08:14:14;10.18;76.33
71291;DHT22;59073;51.994;4.448;2023-04-06T08:16:41;10.14;77.41
71291;DHT22;59073;51.994;4.448;2023-04-06T08:19:06;10.05;77.13
71291;DHT22;59073;51.994;4.448;2023-04-06T08:21:35;10.12;77.79
71291;DHT22;59073;51.994;4.448;2023-04-06T08:24:00;10.08;77.72
71291;DHT22;59073;51.994;4.448;2023-04-06T08:26:26;10.10;78.16
71291;DHT22;59073;51.994;4.448;2023-04-06T08:28:52;10.17;78.21
71291;DHT22;59073;51.994;4.448;2023-04-06T08:31:17;10.15;77.83
71291;DHT22;59073;51.994;4.448;2023-04-06T08:33:43;9.91;78.02
71291;DHT22;59073;51.994;4.448;2023-04-06T08:36:13;9.88;77.73
71291;DHT22;59073;51.994;4.448;2023-04-06T08:38:40;9.87;78.28
71291;DHT22;59073;51.994;4.448;2023-04-06T08:41:10;9.95;78.16
71291;DHT22;59073;51.994;4.448;2023-04-06T08:43:46;10.01;77.67
71291;DHT22;59073;51.994;4.448;2023-04-06T08:46:12;9.98;77.59
71291;DHT22;59073;51.994;4.448;2023-04-06T08:48:42;9.97;78.29
71291;DHT22;59073;51.994;4.448;2023-04-06T08:51:08;10.05;78.93
71291;DHT22;59073;51.994;4.448;2023-04-06T08:53:34;10.08;77.86
71291;DHT22;59073;51.994;4.448;2023-04-06T08:56:01;9.90;78.73
71291;DHT22;59073;51.994;4.448;2023-04-06T08:58:37;9.93;78.74
71291;DHT22;59073;51.994;4.448;2023-04-06T09:01:07;9.98;78.55
71291;DHT22;59073;51.994;4.448;2023-04-06T09:03:39;9.60;77.51
71291;DHT22;59073;51.994;4.448;2023-04-06T09:06:05;9.69;78.41
71291;DHT22;59073;51.994;4.448;2023-04-06T09:08:33;9.86;78.39
71291;DHT22;59073;51.994;4.448;2023-04-06T09:11:00;9.73;78.88
71291;DHT22;59073;51.994;4.448;2023-04-06T09:13:26;9.69;78.05
71291;DHT22;59073;51.994;4.448;2023-04-06T09:16:01;9.67;77.62
71291;DHT22;59073;51.994;4.448;2023-04-06T09:18:29;9.40;78.30
71291;DHT22;59073;51.994;4.448;2023-04-06T09:21:03;9.61;78.80
71291;DHT22;59073;51.994;4.448;2023-04-06T09:23:29;9.59;78.97
71291;DHT22;59073;51.994;4.448;2023-04-06T09:26:08;9.36;78.92
71291;DHT22;59073;51.994;4.448;2023-04-06T09:28:52;9.35;79.82
71291;DHT22;59073;51.994;4.448;2023-04-06T09:31:23;9.32;79.95
71291;DHT22;59073;51.994;4.448;2023-04-06T09:33:50;9.32;80.40
71291;DHT22;59073;51.994;4.448;2023-04-06T09:36:15;9.43;80.59
71291;DHT22;59073;51.994;4.448;2023-04-06T09:39:02;9.36;79.99
71291;DHT22;59073;51.994;4.448;2023-04-06T09:41:34;9.43;79.60
71291;DHT22;59073;51.994;4.448;2023-04-06T09:44:08;9.33;79.60
71291;DHT22;59073;51.994;4.448;2023-04-06T09:46:43;9.40;80.67
71291;DHT22;59073;51.994;4.448;2023-04-06T09:49:09;9.29;80.70
71291;DHT22;59073;51.994;4.448;2023-04-06T09:51:45;9.33;80.65
71291;DHT22;59073;51.994;4.448;2023-04-06T09:54:18;9.42;81.80
71291;DHT22;59073;51.994;4.448;2023-04-06T09:56:56;9.40;81.69
71291;DHT22;59073;51.994;4.448;2023-04-06T10:02:27;9.16;81.80
71291;DHT22;59073;51.994;4.448;2023-04-06T10:05:19;9.22;82.32
71291;DHT22;59073;51.994;4.448;2023-04-06T10:07:48;9.19;82.52
71291;DHT22;59073;51.994;4.448;2023-04-06T10:10:16;8.89;82.83
71291;DHT22;59073;51.994;4.448;2023-04-06T10:12:44;8.88;82.51
71291;DHT22;59073;51.994;4.448;2023-04-06T10:15:10;9.01;82.92
71291;DHT22;59073;51.994;4.448;2023-04-06T10:17:36;8.97;83.00
71291;DHT22;59073;51.994;4.448;2023-04-06T10:20:14;8.93;83.83
71291;DHT22;59073;51.994;4.448;2023-04-06T10:22:49;9.14;83.76
71291;DHT22;59073;51.994;4.448;2023-04-06T10:25:32;9.04;83.43
71291;DHT22;59073;51.994;4.448;2023-04-06T10:28:08;9.02;84.31
71291;DHT22;59073;51.994;4.448;2023-04-06T10:30:34;9.05;83.82
71291;DHT22;59073;51.994;4.448;2023-04-06T10:33:00;9.25;84.52
71291;DHT22;59073;51.994;4.448;2023-04-06T10:35:37;9.29;83.61
71291;DHT22;59073;51.994;4.448;2023-04-06T10:38:05;9.53;83.86
71291;DHT22;59073;51.994;4.448;2023-04-06T10:40:31;9.59;83.51
71291;DHT22;59073;51.994;4.448;2023-04-06T10:43:08;9.64;83.78
71291;DHT22;59073;51.994;4.448;2023-04-06T10:45:35;9.60;83.40
71291;DHT22;59073;51.994;4.448;2023-04-06T10:48:21;9.51;83.60
71291;DHT22;59073;51.994;4.448;2023-04-06T10:50:51;9.36;84.01
71291;DHT22;59073;51.994;4.448;2023-04-06T10:53:22;9.43;83.24
71291;DHT22;59073;51.994;4.448;2023-04-06T10:55:50;9.60;83.90
71291;DHT22;59073;51.994;4.448;2023-04-06T10:58:15;9.50;83.45
71291;DHT22;59073;51.994;4.448;2023-04-06T11:00:48;9.30;84.19
71291;DHT22;59073;51.994;4.448;2023-04-06T11:03:15;9.44;84.67
71291;DHT22;59073;51.994;4.448;2023-04-06T11:05:48;9.43;84.09
71291;DHT22;59073;51.994;4.448;2023-04-06T11:08:32;9.30;84.51
71291;DHT22;59073;51.994;4.448;2023-04-06T11:13:44;9.22;84.37
71291;DHT22;59073;51.994;4.448;2023-04-06T11:16:26;9.32;84.54
71291;DHT22;59073;51.994;4.448;2023-04-06T11:18:57;9.18;84.72
71291;DHT22;59073;51.994;4.448;2023-04-06T11:29:10;9.12;84.73
71291;DHT22;59073;51.994;4.448;2023-04-06T11:31:47;9.16;84.97
71291;DHT22;59073;51.994;4.448;2023-04-06T11:34:17;9.26;85.07
71291;DHT22;59073;51.994;4.448;2023-04-06T11:36:44;9.38;84.60
71291;DHT22;59073;51.994;4.448;2023-04-06T11:39:12;9.32;85.01
71291;DHT22;59073;51.994;4.448;2023-04-06T11:41:37;9.43;84.32
71291;DHT22;59073;51.994;4.448;2023-04-06T11:44:03;9.47;84.41
71291;DHT22;59073;51.994;4.448;2023-04-06T11:46:30;9.39;84.39
71291;DHT22;59073;51.994;4.448;2023-04-06T11:49:00;9.29;83.91
71291;DHT22;59073;51.994;4.448;2023-04-06T11:51:26;9.26;84.30
71291;DHT22;59073;51.994;4.448;2023-04-06T11:53:53;9.19;84.67
71291;DHT22;59073;51.994;4.448;2023-04-06T11:56:25;9.08;84.97
71291;DHT22;59073;51.994;4.448;2023-04-06T11:58:51;9.19;85.29
71291;DHT22;59073;51.994;4.448;2023-04-06T12:01:16;9.30;85.33
71291;DHT22;59073;51.994;4.448;2023-04-06T12:03:42;9.32;84.72
71291;DHT22;59073;51.994;4.448;2023-04-06T12:06:07;9.49;85.58
71291;DHT22;59073;51.994;4.448;2023-04-06T12:08:33;9.56;84.97
71291;DHT22;59073;51.994;4.448;2023-04-06T12:10:58;9.53;84.57
71291;DHT22;59073;51.994;4.448;2023-04-06T12:13:24;9.30;85.28
71291;DHT22;59073;51.994;4.448;2023-04-06T12:15:50;9.26;85.09
71291;DHT22;59073;51.994;4.448;2023-04-06T12:18:15;9.16;85.77
71291;DHT22;59073;51.994;4.448;2023-04-06T12:20:40;9.29;86.02
71291;DHT22;59073;51.994;4.448;2023-04-06T12:23:06;9.33;85.60
71291;DHT22;59073;51.994;4.448;2023-04-06T12:25:32;9.23;85.77
71291;DHT22;59073;51.994;4.448;2023-04-06T12:27:57;9.22;85.87
71291;DHT22;59073;51.994;4.448;2023-04-06T12:30:23;9.33;85.68
71291;DHT22;59073;51.994;4.448;2023-04-06T12:32:48;9.30;86.21
71291;DHT22;59073;51.994;4.448;2023-04-06T12:35:15;9.25;86.14
71291;DHT22;59073;51.994;4.448;2023-04-06T12:37:41;9.26;86.42
71291;DHT22;59073;51.994;4.448;2023-04-06T12:40:07;9.30;86.30
71291;DHT22;59073;51.994;4.448;2023-04-06T12:42:33;9.30;86.67
71291;DHT22;59073;51.994;4.448;2023-04-06T12:44:58;9.36;86.53
71291;DHT22;59073;51.994;4.448;2023-04-06T12:47:25;9.54;86.18
71291;DHT22;59073;51.994;4.448;2023-04-06T12:49:51;9.38;86.53
71291;DHT22;59073;51.994;4.448;2023-04-06T12:52:16;9.43;86.58
71291;DHT22;59073;51.994;4.448;2023-04-06T12:54:42;9.28;87.00
71291;DHT22;59073;51.994;4.448;2023-04-06T12:57:08;9.19;87.15
71291;DHT22;59073;51.994;4.448;2023-04-06T12:59:33;9.20;87.40
71291;DHT22;59073;51.994;4.448;2023-04-06T13:02:00;9.15;86.79
71291;DHT22;59073;51.994;4.448;2023-04-06T13:04:26;9.36;87.67
71291;DHT22;59073;51.994;4.448;2023-04-06T13:06:51;9.29;87.32
71291;DHT22;59073;51.994;4.448;2023-04-06T13:09:17;9.09;87.57
71291;DHT22;59073;51.994;4.448;2023-04-06T13:11:42;9.07;87.62
71291;DHT22;59073;51.994;4.448;2023-04-06T13:14:07;9.07;88.03
71291;DHT22;59073;51.994;4.448;2023-04-06T13:16:33;9.09;88.03
71291;DHT22;59073;51.994;4.448;2023-04-06T13:18:58;9.30;88.13
71291;DHT22;59073;51.994;4.448;2023-04-06T13:21:24;9.36;88.04
71291;DHT22;59073;51.994;4.448;2023-04-06T13:23:50;9.53;87.79
71291;DHT22;59073;51.994;4.448;2023-04-06T13:26:15;9.43;87.36
71291;DHT22;59073;51.994;4.448;2023-04-06T13:28:42;9.51;87.62
71291;DHT22;59073;51.994;4.448;2023-04-06T13:31:07;9.40;87.18
71291;DHT22;59073;51.994;4.448;2023-04-06T13:33:33;9.23;87.45
71291;DHT22;59073;51.994;4.448;2023-04-06T13:35:59;9.36;87.83
71291;DHT22;59073;51.994;4.448;2023-04-06T13:38:25;9.39;87.69
71291;DHT22;59073;51.994;4.448;2023-04-06T13:40:51;9.54;87.29
71291;DHT22;59073;51.994;4.448;2023-04-06T13:43:16;9.44;87.27
71291;DHT22;59073;51.994;4.448;2023-04-06T13:45:49;9.60;87.58
71291;DHT22;59073;51.994;4.448;2023-04-06T13:48:15;9.51;87.25
71291;DHT22;59073;51.994;4.448;2023-04-06T13:50:40;9.60;87.63
71291;DHT22;59073;51.994;4.448;2023-04-06T13:53:06;9.67;87.39
71291;DHT22;59073;51.994;4.448;2023-04-06T13:55:31;9.69;87.69
71291;DHT22;59073;51.994;4.448;2023-04-06T13:57:56;9.69;87.70
71291;DHT22;59073;51.994;4.448;2023-04-06T14:00:22;9.74;87.46
71291;DHT22;59073;51.994;4.448;2023-04-06T14:02:48;9.64;87.61
71291;DHT22;59073;51.994;4.448;2023-04-06T14:05:14;9.64;87.36
71291;DHT22;59073;51.994;4.448;2023-04-06T14:07:39;9.54;87.88
71291;DHT22;59073;51.994;4.448;2023-04-06T14:10:06;9.67;87.86
71291;DHT22;59073;51.994;4.448;2023-04-06T14:12:39;9.76;88.14
71291;DHT22;59073;51.994;4.448;2023-04-06T14:15:05;9.91;87.85
71291;DHT22;59073;51.994;4.448;2023-04-06T14:17:31;9.81;87.54
71291;DHT22;59073;51.994;4.448;2023-04-06T14:19:56;9.83;87.52
71291;DHT22;59073;51.994;4.448;2023-04-06T14:22:21;9.76;87.39
71291;DHT22;59073;51.994;4.448;2023-04-06T14:24:47;9.93;87.44
71291;DHT22;59073;51.994;4.448;2023-04-06T14:27:12;9.93;86.81
71291;DHT22;59073;51.994;4.448;2023-04-06T14:29:39;9.74;86.63
71291;DHT22;59073;51.994;4.448;2023-04-06T14:32:04;9.77;87.06
71291;DHT22;59073;51.994;4.448;2023-04-06T14:34:29;9.86;87.06
71291;DHT22;59073;51.994;4.448;2023-04-06T14:36:55;9.81;87.26
71291;DHT22;59073;51.994;4.448;2023-04-06T14:39:20;9.87;87.79
71291;DHT22;59073;51.994;4.448;2023-04-06T14:41:46;9.87;87.41
71291;DHT22;59073;51.994;4.448;2023-04-06T14:44:13;9.93;87.08
71291;DHT22;59073;51.994;4.448;2023-04-06T14:46:39;9.97;87.06
71291;DHT22;59073;51.994;4.448;2023-04-06T14:49:05;10.00;86.79
71291;DHT22;59073;51.994;4.448;2023-04-06T14:51:33;10.07;86.70
71291;DHT22;59073;51.994;4.448;2023-04-06T14:54:00;10.04;87.00
71291;DHT22;59073;51.994;4.448;2023-04-06T14:56:25;10.04;86.69
71291;DHT22;59073;51.994;4.448;2023-04-06T14:58:51;10.01;87.22
71291;DHT22;59073;51.994;4.448;2023-04-06T15:01:19;10.05;87.24
71291;DHT22;59073;51.994;4.448;2023-04-06T15:03:48;10.05;87.44
71291;DHT22;59073;51.994;4.448;2023-04-06T15:06:15;10.08;87.36
71291;DHT22;59073;51.994;4.448;2023-04-06T15:08:44;10.10;87.40
71291;DHT22;59073;51.994;4.448;2023-04-06T15:11:10;10.04;87.41
71291;DHT22;59073;51.994;4.448;2023-04-06T15:13:37;10.10;87.74
71291;DHT22;59073;51.994;4.448;2023-04-06T15:16:03;10.10;87.25
71291;DHT22;59073;51.994;4.448;2023-04-06T15:18:28;10.08;87.45
71291;DHT22;59073;51.994;4.448;2023-04-06T15:20:54;10.08;87.41
71291;DHT22;59073;51.994;4.448;2023-04-06T15:23:20;10.14;87.41
71291;DHT22;59073;51.994;4.448;2023-04-06T15:25:46;10.08;87.44
71291;DHT22;59073;51.994;4.448;2023-04-06T15:28:12;10.21;87.60
71291;DHT22;59073;51.994;4.448;2023-04-06T15:30:37;10.24;87.37
71291;DHT22;59073;51.994;4.448;2023-04-06T15:33:04;10.20;87.17
71291;DHT22;59073;51.994;4.448;2023-04-06T15:35:32;10.21;87.12
71291;DHT22;59073;51.994;4.448;2023-04-06T15:37:58;10.22;87.11
71291;DHT22;59073;51.994;4.448;2023-04-06T15:40:24;10.27;87.45
71291;DHT22;59073;51.994;4.448;2023-04-06T15:42:50;10.24;87.29
71291;DHT22;59073;51.994;4.448;2023-04-06T15:45:16;10.22;87.57
71291;DHT22;59073;51.994;4.448;2023-04-06T15:47:43;10.18;87.59
71291;DHT22;59073;51.994;4.448;2023-04-06T15:50:09;10.17;87.53
71291;DHT22;59073;51.994;4.448;2023-04-06T15:52:36;10.21;87.24